Pagrindinis puslapis
METAR-TAF:

METAR-TAF

Oro uostai :

Bergenas, Norvegija

platuma: 60-17N, ilguma: 005-14E, Aukštis: 5 m

Dabartinis oras

Ataskaita buvo paskelbta 15 minutes, ne 07:20 UTC
Vėjas 2 kt iš Šiaurės
Temperatūra -3°C
Drėgmė 93%
Slėgis 999 hPa
Matomumas 10 km arba daugiau
Mažai debesys ne aukštis 1500 ft
Išsisklaidę debesys ne aukštis 4000 ft
Liūtis kaimynystėje

METAR: ENBR 020720Z 36002KT 9999 VCSH FEW015 SCT040 M03/M04 Q0999 TEMPO 0800 SHSN VV008 RMK WIND 1200FT 33015KT

Laikas: 08:35 (07:35 UTC)

Prognozė

Prognozė galioja nuo 02 metu 06 UTC su 03 metu 06 UTC
Vėjas 8 kt iš Šiaurės
Matomumas 10 km arba daugiau
Mažai debesys ne aukštis 2000 ft, aukštai iškilę kamuoliniai debesys.
Išsisklaidę debesys ne aukštis 6000 ft
sniegas
Laikinai
nuo 02 metu 06 UTC su 02 metu 17 UTC
Matomumas: 0800 m
ne aukštis 800 ft
sniegas
Laikinai
nuo 02 metu 10 UTC su 02 metu 18 UTC
Vėjas 15 kt iš Šiaurės su gūsio iki 28 kt

TAF: ENBR 0206/0306 01008KT 9999 -SHSN FEW020TCU SCT060 TEMPO 0206/0217 0800 SHSN VV008 TEMPO 0210/0218 35015G28KT

Orai ataskaitas ir orų prognozės (METAR, TAF).

turimą stotys yra geltonos ir raudonos taškus žemėlapyje.

Perkelti pele per norėdami pamatyti stoties vardą.

Tada spustelėkite, norėdami matyti oro stebėjimo ir prognozės.

Norėdami pakeisti žemėlapį: spustelėkite ant žalios mygtukų su juodo kryžiaus žemyn,; žalią mygtuką su brūkšneliu, jei norite nutolinti; arba žalių rodyklių gretimoms žemėlapius.


METAR-TAF: